Time;durP1;ratioP1;P1;durP2;ratioP2;P2;SDS_P1;SDS_P2;PMS_P1;PMS_P2;Temp;Humidity;BMP_temperature;BMP_pressure;BME280_temperature;BME280_humidity;BME280_pressure;Samples;Min_cycle;Max_cycle;Signal;HPM_P1;HPM_P2
2022/04/28 08:54:45;;;;;;;2.78;0.85;;;22.30;34.20;;;25.99;22.46;102690.09;6193262;22;884496;-8
2022/04/28 08:57:13;;;;;;;1.50;1.10;;;22.10;35.10;;;25.93;22.61;102692.22;6268660;22;20138;-8
2022/04/28 08:59:40;;;;;;;2.45;0.93;;;21.90;35.20;;;25.85;22.73;102696.19;6269142;22;20041;-8
2022/04/28 09:02:10;;;;;;;3.00;1.10;;;21.90;35.80;;;25.71;23.06;102688.06;6245163;22;20138;-7
2022/04/28 09:05:05;;;;;;;1.77;1.10;;;21.90;36.10;;;25.77;23.11;102692.19;6223694;23;20099;-9
2022/04/28 09:08:03;;;;;;;2.88;1.13;;;21.90;35.90;;;25.70;23.13;102676.44;6242436;23;20439;-9
2022/04/28 09:10:47;;;;;;;2.45;0.88;;;21.80;36.00;;;25.68;23.33;102685.53;6245470;23;20086;-7
2022/04/28 09:16:25;;;;;;;4.57;1.50;;;21.90;36.90;;;25.69;23.47;102689.91;6238114;23;20047;-8
2022/04/28 09:18:54;;;;;;;2.22;0.90;;;21.80;36.80;;;25.62;23.70;102670.63;6217789;23;20043;-8
2022/04/28 09:21:21;;;;;;;3.78;0.88;;;21.80;36.80;;;25.63;23.27;102685.75;6242847;23;20016;-8
2022/04/28 09:23:51;;;;;;;4.55;1.38;;;21.80;36.70;;;25.78;23.71;102693.94;6243337;23;20016;-8
2022/04/28 09:26:23;;;;;;;1.70;1.13;;;21.90;36.60;;;25.64;23.64;102673.22;6268766;22;20452;-8
2022/04/28 09:28:49;;;;;;;1.87;1.00;;;21.90;36.50;;;25.79;23.53;102692.97;6243886;23;20071;-8
2022/04/28 09:31:18;;;;;;;5.07;1.35;;;21.80;36.40;;;25.78;23.46;102689.44;6243366;23;20341;-9
2022/04/28 09:34:20;;;;;;;2.03;1.05;;;21.90;36.40;;;25.82;23.25;102701.72;6178631;22;20020;-7
2022/04/28 09:37:08;;;;;;;2.67;1.20;;;21.90;36.30;;;25.79;23.35;102692.97;6243705;23;20016;-9
2022/04/28 09:42:31;;;;;;;2.88;1.15;;;21.80;36.10;;;25.69;23.49;102677.41;6242624;23;20054;-9
2022/04/28 09:45:01;;;;;;;2.35;1.25;;;21.80;36.10;;;25.69;23.36;102677.41;6241471;23;20385;-7
2022/04/28 09:47:31;;;;;;;1.27;1.02;;;21.80;36.00;;;25.72;23.29;102670.16;6242541;23;20012;-8
2022/04/28 09:49:57;;;;;;;4.50;1.20;;;21.90;36.00;;;25.74;23.08;102679.81;6242763;23;20016;-8
2022/04/28 09:52:28;;;;;;;3.53;1.02;;;21.80;35.90;;;25.80;23.11;102694.72;6244435;23;20103;-8
2022/04/28 09:55:24;;;;;;;3.05;1.33;;;21.80;35.80;;;25.59;23.25;102662.75;6240769;23;20145;-7
2022/04/28 09:58:14;;;;;;;1.50;1.20;;;21.80;35.80;;;25.79;23.11;102682.25;6242315;23;20020;-7
2022/04/28 10:00:41;;;;;;;2.58;1.13;;;21.80;35.80;;;25.80;22.95;102684.00;6243512;23;20116;-7
2022/04/28 10:03:09;;;;;;;2.35;1.20;;;21.80;35.60;;;25.83;23.05;102692.72;6243438;23;20016;-7
2022/04/28 10:05:38;;;;;;;2.58;1.23;;;21.90;35.60;;;25.82;23.05;102682.94;6243615;23;20016;-8
2022/04/28 10:08:25;;;;;;;2.40;0.82;;;21.90;35.50;;;25.77;22.96;102678.81;6245375;23;20058;-7
2022/04/28 10:10:57;;;;;;;1.00;0.90;;;21.90;35.50;;;25.84;22.93;102688.22;6244654;22;20019;-7
2022/04/28 10:13:24;;;;;;;5.35;1.30;;;21.90;35.40;;;25.70;22.90;102660.38;6269160;22;20106;-8
2022/04/28 10:16:02;;;;;;;2.58;1.00;;;21.80;35.40;;;25.84;23.02;102680.19;6218905;23;20018;-7
2022/04/28 10:18:34;;;;;;;2.53;1.00;;;21.90;35.50;;;25.85;23.04;102687.28;6217607;23;20028;-7
2022/04/28 10:21:05;;;;;;;3.67;1.00;;;21.80;35.40;;;25.82;23.12;102687.47;6243294;23;20391;-7
2022/04/28 10:33:00;;;;;;;3.83;1.30;;;21.80;36.10;;;25.65;23.33;102651.72;6244720;23;20008;-7
2022/04/28 10:35:50;;;;;;;3.60;1.02;;;21.90;36.10;;;25.79;23.40;102685.78;6218445;23;20341;-6
2022/04/28 10:38:30;;;;;;;2.47;1.10;;;21.80;36.20;;;25.65;23.30;102646.34;6244642;22;20091;-8
2022/04/28 10:41:03;;;;;;;3.47;1.45;;;21.90;36.30;;;25.71;23.63;102658.56;6245022;22;20027;-7
2022/04/28 10:43:32;;;;;;;1.95;1.00;;;21.90;36.40;;;25.86;23.47;102684.53;6244797;22;20407;-7
2022/04/28 10:46:22;;;;;;;5.18;1.38;;;21.90;36.20;;;25.82;23.61;102671.38;6245331;22;20023;-7
2022/04/28 10:49:08;;;;;;;4.60;1.48;;;21.90;36.40;;;25.86;23.49;102676.50;6244533;22;20012;-7
2022/04/28 10:51:36;;;;;;;3.05;1.30;;;22.00;36.50;;;25.82;23.52;102660.66;6244293;22;20043;-8
2022/04/28 10:54:22;;;;;;;3.30;1.38;;;22.00;36.40;;;25.46;23.76;102600.97;6244751;22;20062;-8
2022/04/28 10:56:52;;;;;;;3.95;1.52;;;22.00;36.60;;;25.94;23.49;102673.38;6245134;22;20101;-8
2022/04/28 10:59:32;;;;;;;1.85;1.05;;;22.00;36.80;;;25.92;23.69;102686.00;6245148;22;20082;-8
2022/04/28 11:02:21;;;;;;;3.33;1.05;;;22.00;36.60;;;25.81;23.63;102659.81;6245050;22;20453;-8
2022/04/28 11:04:55;;;;;;;3.60;1.10;;;22.00;36.90;;;25.86;23.78;102670.25;6234682;23;20016;-9
2022/04/28 11:07:25;;;;;;;2.97;1.27;;;21.90;37.00;;;25.83;23.69;102668.63;6218042;23;20016;-8
2022/04/28 11:10:03;;;;;;;2.53;1.23;;;21.90;37.00;;;25.84;23.75;102664.13;6244773;22;20015;-8
2022/04/28 11:12:43;;;;;;;6.43;1.20;;;21.90;36.90;;;25.81;23.90;102653.56;6243014;23;20022;-8
2022/04/28 11:15:14;;;;;;;8.70;1.17;;;21.90;37.00;;;25.87;23.91;102661.28;6242262;23;20330;-8
2022/04/28 11:17:44;;;;;;;4.82;1.30;;;21.90;37.60;;;25.89;23.95;102662.03;6268630;22;20277;-7
2022/04/28 11:20:18;;;;;;;8.35;1.88;;;21.90;37.50;;;25.81;23.99;102658.91;6245090;22;20026;-7
2022/04/28 11:22:52;;;;;;;6.35;1.48;;;21.90;37.60;;;25.89;24.04;102664.72;6268759;22;20024;-8
2022/04/28 11:25:22;;;;;;;5.30;1.73;;;21.90;37.50;;;25.85;24.08;102663.19;6244070;22;20026;-7
2022/04/28 11:27:50;;;;;;;2.65;1.20;;;21.90;37.40;;;25.73;24.03;102654.00;6268070;22;20031;-7
2022/04/28 11:30:21;;;;;;;8.13;1.45;;;21.80;37.40;;;25.84;24.00;102666.78;6268090;22;20008;-8
2022/04/28 11:32:58;;;;;;;5.35;1.35;;;21.80;37.40;;;25.79;24.01;102660.81;6244204;22;20310;-8
2022/04/28 11:35:31;;;;;;;7.60;1.73;;;21.70;37.40;;;25.79;23.92;102659.00;6242821;23;20012;-8
2022/04/28 11:37:58;;;;;;;5.47;1.30;;;21.70;37.40;;;25.77;24.01;102646.66;6244501;22;20434;-8
2022/04/28 11:40:24;;;;;;;4.45;1.25;;;21.70;37.30;;;25.69;23.98;102644.38;6243129;23;20009;-8
2022/04/28 11:43:01;;;;;;;4.15;1.30;;;21.70;37.30;;;25.59;24.11;102627.06;6244358;22;20437;-8
2022/04/28 11:45:32;;;;;;;3.40;1.10;;;21.70;37.30;;;25.75;24.01;102654.78;6244321;22;20012;-8
2022/04/28 11:48:00;;;;;;;;;;;21.70;37.20;;;25.81;23.93;102648.19;6269289;22;20014;-8
2022/04/28 11:50:34;;;;;;;3.13;1.15;;;21.70;37.20;;;25.79;23.88;102655.47;6244129;23;19911;-8
2022/04/28 11:53:12;;;;;;;3.53;1.30;;;21.70;37.10;;;25.68;23.80;102648.03;6244484;22;20012;-8
2022/04/28 11:55:40;;;;;;;2.60;1.40;;;21.70;37.10;;;25.73;23.92;102656.66;6212167;23;20029;-10
2022/04/28 11:58:15;;;;;;;2.22;1.25;;;21.70;37.00;;;25.73;23.69;102662.03;6207631;23;20045;-9
2022/04/28 12:00:46;;;;;;;5.78;1.30;;;21.70;37.00;;;25.57;23.93;102631.66;6211608;23;20088;-8
2022/04/28 12:03:30;;;;;;;4.45;1.75;;;21.70;37.00;;;25.69;23.83;102657.78;6213623;23;20012;-8
2022/04/28 12:05:56;;;;;;;5.57;1.20;;;21.70;37.00;;;25.59;23.83;102624.38;6206372;23;20048;-8
2022/04/28 12:08:24;;;;;;;2.65;1.38;;;21.70;37.00;;;25.70;23.85;102649.66;6212036;23;20487;-8
2022/04/28 12:19:19;;;;;;;4.90;1.30;;;21.70;36.90;;;25.54;24.05;102638.03;6212405;23;20020;-9
2022/04/28 12:19:20;;;;;;;5.15;1.33;;;21.70;37.10;;;25.54;24.00;102638.03;6215141;23;20371;-9
2022/04/28 12:21:46;;;;;;;3.38;1.10;;;21.60;37.20;;;25.67;23.90;102655.16;6215416;23;20083;-8
2022/04/28 12:24:23;;;;;;;3.90;1.42;;;21.70;36.90;;;25.63;23.92;102636.69;6214762;23;20012;-9
2022/04/28 12:26:51;;;;;;;7.05;1.75;;;21.80;37.10;;;25.64;23.99;102633.03;6214998;23;20012;-14
2022/04/28 12:29:19;;;;;;;3.00;1.17;;;21.90;36.80;;;25.74;23.85;102657.53;6215434;23;20426;-15
2022/04/28 12:31:46;;;;;;;2.45;1.10;;;21.90;37.00;;;25.72;23.97;102641.53;6214806;23;20316;-15
2022/04/28 12:34:19;;;;;;;6.30;1.20;;;22.00;36.80;;;25.84;23.97;102659.66;6214922;23;20450;-15
2022/04/28 12:36:57;;;;;;;4.28;1.35;;;22.00;36.80;;;25.85;24.02;102658.66;6214050;23;20427;-15
2022/04/28 12:39:26;;;;;;;4.38;1.20;;;22.10;36.70;;;25.82;23.92;102640.06;6213307;23;20099;-15
2022/04/28 12:41:53;;;;;;;5.57;1.88;;;22.10;36.60;;;25.98;23.96;102655.38;6214726;23;20012;-15
2022/04/28 12:44:20;;;;;;;4.00;1.80;;;22.10;36.50;;;26.01;23.84;102649.81;6214700;23;20078;-14
2022/04/28 12:46:46;;;;;;;4.50;1.45;;;22.20;36.60;;;26.05;23.84;102651.38;6214810;23;20004;-14
2022/04/28 12:49:16;;;;;;;2.92;1.48;;;22.20;36.50;;;25.98;23.71;102636.59;6214883;23;20020;-14
2022/04/28 12:51:54;;;;;;;2.70;1.45;;;22.20;36.40;;;26.09;23.56;102654.75;6214754;23;20008;-14
2022/04/28 12:54:24;;;;;;;3.15;1.10;;;22.20;36.30;;;26.01;23.65;102633.72;6212458;23;20017;-14
2022/04/28 12:57:03;;;;;;;4.93;1.57;;;22.20;36.30;;;26.12;23.68;102646.56;6215035;23;20503;-16
2022/04/28 12:59:35;;;;;;;3.50;1.25;;;22.20;36.20;;;26.09;23.58;102636.00;6212028;23;20020;-15
2022/04/28 13:02:01;;;;;;;4.05;1.20;;;22.30;36.20;;;26.16;23.81;102642.72;6212735;23;20507;-14
2022/04/28 13:04:28;;;;;;;4.50;1.55;;;22.30;36.20;;;26.05;23.50;102620.06;6213062;23;20044;-15
2022/04/28 13:06:55;;;;;;;1.98;1.17;;;22.30;36.20;;;26.17;23.59;102639.97;6214725;23;20023;-14
2022/04/28 13:09:22;;;;;;;5.30;1.60;;;22.30;36.20;;;26.15;23.55;102630.28;6215107;23;20009;-15
2022/04/28 13:11:49;;;;;;;4.32;1.70;;;22.40;36.30;;;26.19;23.52;102640.75;6214356;23;20431;-17
2022/04/28 13:14:20;;;;;;;2.42;1.30;;;22.40;36.20;;;26.23;23.51;102638.78;6214481;23;20373;-15
2022/04/28 13:16:46;;;;;;;3.60;1.50;;;22.30;36.30;;;26.15;23.60;102624.94;6214861;23;20059;-15
2022/04/28 13:19:14;;;;;;;5.97;1.55;;;22.30;36.80;;;26.14;23.54;102628.56;6214733;23;20013;-16
2022/04/28 13:21:41;;;;;;;2.50;1.30;;;22.30;36.30;;;26.18;23.57;102636.34;6214650;23;20043;-16
2022/04/28 13:24:08;;;;;;;2.90;1.30;;;22.30;36.30;;;26.10;23.50;102616.28;6215418;23;20015;-16
2022/04/28 13:26:36;;;;;;;4.13;1.42;;;22.30;36.20;;;26.16;23.49;102632.91;6215253;23;20008;-16
2022/04/28 13:29:03;;;;;;;3.13;1.30;;;22.20;36.10;;;26.16;23.47;102627.53;6215516;23;20017;-16
2022/04/28 13:31:30;;;;;;;7.22;1.88;;;22.30;36.20;;;26.11;23.47;102626.94;6213065;23;20019;-16
2022/04/28 13:33:56;;;;;;;4.30;1.40;;;22.20;36.40;;;26.15;23.57;102624.94;6214956;23;20036;-16
2022/04/28 13:36:24;;;;;;;2.70;1.50;;;22.20;36.20;;;26.04;23.54;102606.75;6215037;23;20016;-16
2022/04/28 13:38:50;;;;;;;1.75;1.20;;;22.20;36.30;;;26.16;23.49;102619.50;6214997;23;20012;-16
2022/04/28 13:41:16;;;;;;;2.28;1.38;;;22.20;36.20;;;26.17;23.66;102625.72;6214770;23;20016;-16
2022/04/28 13:43:43;;;;;;;3.65;1.20;;;22.20;36.20;;;26.19;23.52;102618.44;6215006;23;20324;-16
2022/04/28 13:46:18;;;;;;;2.50;1.00;;;22.30;36.30;;;26.17;23.57;102623.03;6212837;23;20495;-16
2022/04/28 13:48:44;;;;;;;2.88;1.38;;;22.30;36.40;;;26.14;23.50;102604.44;6214633;23;20043;-16
2022/04/28 13:51:09;;;;;;;2.80;1.15;;;22.30;36.40;;;26.22;23.49;102616.44;6212774;23;20083;-16
2022/04/28 13:53:35;;;;;;;4.07;1.38;;;22.30;36.30;;;26.22;23.51;102616.44;6214555;23;20012;-16
2022/04/28 13:56:06;;;;;;;4.28;1.30;;;22.30;36.30;;;26.24;23.58;102617.25;6215547;23;20016;-17
2022/04/28 13:58:33;;;;;;;5.13;1.33;;;22.40;36.30;;;26.30;23.66;102617.84;6214668;23;20020;-16
2022/04/28 14:00:59;;;;;;;5.47;1.30;;;22.40;36.30;;;26.32;23.44;102621.28;6214608;23;20345;-16
2022/04/28 14:03:29;;;;;;;3.47;1.27;;;22.40;36.30;;;26.34;23.55;102627.44;6214653;23;20022;-16
2022/04/28 14:05:57;;;;;;;1.00;0.90;;;22.40;36.40;;;26.37;23.43;102621.88;6214988;23;20095;-16
2022/04/28 14:08:23;;;;;;;4.22;1.33;;;22.40;36.30;;;26.27;23.58;102608.13;6214591;23;20397;-16
2022/04/28 14:10:49;;;;;;;3.15;1.00;;;22.40;36.90;;;26.20;23.43;102596.03;6214686;23;20013;-15
2022/04/28 14:13:16;;;;;;;4.10;1.25;;;22.40;36.50;;;26.22;23.51;102611.06;6214441;23;20063;-14
2022/04/28 14:15:45;;;;;;;2.47;1.15;;;22.30;36.60;;;26.15;23.58;102595.44;6214471;23;20020;-15
2022/04/28 14:18:15;;;;;;;2.85;1.02;;;22.20;36.60;;;26.14;23.65;102605.28;6214497;23;20023;-15
2022/04/28 14:20:42;;;;;;;2.33;1.40;;;22.10;36.70;;;26.22;23.59;102619.13;6214526;23;20031;-17
2022/04/28 14:23:09;;;;;;;2.67;1.20;;;22.10;36.80;;;26.19;23.56;102618.44;6214238;23;20044;-15
2022/04/28 14:25:36;;;;;;;3.58;1.50;;;22.00;36.80;;;26.07;23.58;102598.56;6214474;23;20005;-14
2022/04/28 14:28:03;;;;;;;2.70;1.02;;;22.00;36.70;;;26.12;23.75;102606.34;6214120;23;20013;-16
2022/04/28 14:30:29;;;;;;;3.58;1.48;;;22.00;36.70;;;26.14;23.58;102620.50;6211869;23;20024;-15
2022/04/28 14:32:55;;;;;;;2.22;1.20;;;22.00;36.80;;;26.10;23.66;102611.78;6212855;23;20362;-16
2022/04/28 14:35:21;;;;;;;3.15;1.27;;;22.00;36.80;;;26.01;23.66;102591.72;6213572;23;20025;-15
2022/04/28 14:37:47;;;;;;;5.13;1.50;;;21.90;36.70;;;25.92;23.63;102581.47;6213841;23;20083;-16
2022/04/28 14:40:13;;;;;;;2.05;1.20;;;22.00;36.80;;;25.96;23.65;102596.50;6214041;23;20016;-14
2022/04/28 14:42:40;;;;;;;1.63;1.00;;;21.90;36.80;;;26.03;23.60;102608.59;6214081;23;20040;-15
2022/04/28 14:45:08;;;;;;;3.08;1.20;;;21.90;36.80;;;26.02;23.56;102606.84;6214470;23;20013;-14
2022/04/28 14:47:34;;;;;;;2.42;1.27;;;21.90;36.80;;;25.96;23.61;102606.31;6215064;23;20008;-15
2022/04/28 14:53:09;;;;;;;2.92;1.25;;;21.90;36.80;;;25.89;23.60;102603.09;6152400;23;20408;-15
2022/04/28 14:55:35;;;;;;;1.83;1.13;;;21.90;36.80;;;25.91;23.60;102603.88;6152485;23;20024;-13
2022/04/28 14:58:06;;;;;;;1.20;0.90;;;21.90;36.80;;;25.85;23.87;102605.06;6181004;23;20029;-16
2022/04/28 15:00:34;;;;;;;1.67;1.20;;;21.80;36.80;;;25.81;23.66;102602.66;6214679;23;20334;-15
2022/04/28 15:02:59;;;;;;;4.70;1.23;;;21.80;36.80;;;25.88;23.58;102617.47;6215174;23;20043;-15
2022/04/28 15:05:25;;;;;;;2.50;1.38;;;21.80;36.80;;;25.87;23.87;102621.94;6214460;23;20008;-15
2022/04/28 15:07:51;;;;;;;3.00;1.25;;;21.80;36.80;;;25.80;23.63;102609.84;6211765;23;20096;-15
2022/04/28 15:10:17;;;;;;;3.33;1.10;;;21.70;36.70;;;25.80;23.74;102608.97;6214787;23;20464;-15
2022/04/28 15:12:43;;;;;;;1.85;1.20;;;21.80;36.90;;;25.70;23.79;102603.25;6214469;23;20542;-15
2022/04/28 15:15:12;;;;;;;2.53;1.00;;;21.70;36.80;;;25.69;23.73;102599.72;6212731;23;20335;-15
2022/04/28 15:17:39;;;;;;;4.45;1.13;;;21.70;36.80;;;25.64;23.83;102604.47;6214556;23;20127;-14
2022/04/28 15:20:09;;;;;;;2.88;1.13;;;21.70;36.80;;;25.62;23.68;102600.13;6214288;23;20017;-15
2022/04/28 15:22:39;;;;;;;1.85;1.45;;;21.70;36.80;;;25.58;23.74;102599.44;6214295;23;20088;-15
2022/04/28 15:25:10;;;;;;;2.45;1.08;;;21.70;36.90;;;25.60;23.88;102599.34;6214088;23;20013;-14
2022/04/28 15:27:40;;;;;;;1.90;1.30;;;21.70;36.80;;;25.66;23.60;102607.91;6214658;23;20019;-15
2022/04/28 15:30:08;;;;;;;3.35;1.30;;;21.60;36.80;;;25.55;23.79;102588.03;6214191;23;20062;-14
2022/04/28 15:32:39;;;;;;;1.38;1.20;;;21.70;36.90;;;25.63;23.84;102613.44;6214126;23;20020;-15
2022/04/28 15:35:06;;;;;;;1.70;1.20;;;21.60;36.80;;;25.62;23.82;102610.84;6214624;23;20008;-15
2022/04/28 15:37:32;;;;;;;1.83;1.10;;;21.60;36.90;;;25.49;23.87;102598.13;6215228;23;20096;-15
2022/04/28 15:39:59;;;;;;;2.58;1.30;;;21.60;36.90;;;25.57;23.82;102619.13;6215582;23;20048;-15
2022/04/28 15:42:25;;;;;;;2.80;1.25;;;21.60;36.90;;;25.56;23.83;102617.41;6215556;23;20013;-15
2022/04/28 15:44:51;;;;;;;2.58;1.25;;;21.50;36.90;;;25.46;23.89;102602.75;6215459;23;20008;-15
2022/04/28 15:47:16;;;;;;;1.67;1.10;;;21.60;36.90;;;25.32;23.91;102579.41;6215666;23;20067;-16
2022/04/28 15:49:42;;;;;;;1.10;0.90;;;21.60;36.90;;;25.48;23.92;102604.41;6215447;23;20008;-15
2022/04/28 15:52:08;;;;;;;1.73;1.20;;;21.50;36.90;;;25.38;23.95;102595.16;6215499;23;20015;-15
2022/04/28 15:54:33;;;;;;;2.05;1.30;;;21.50;37.50;;;25.45;24.00;102611.75;6215839;23;20009;-15
2022/04/28 15:56:59;;;;;;;2.80;1.23;;;21.50;36.90;;;25.44;23.91;102612.69;6215413;23;20009;-15
2022/04/28 15:59:27;;;;;;;3.63;1.27;;;21.50;36.90;;;25.43;23.97;102617.19;6215661;23;20070;-15
2022/04/28 16:01:52;;;;;;;2.88;1.40;;;21.50;36.90;;;25.36;23.90;102604.19;6215548;23;20044;-15
2022/04/28 16:04:19;;;;;;;2.33;1.27;;;21.50;36.90;;;25.44;23.92;102616.25;6215832;23;20020;-15
2022/04/28 16:06:45;;;;;;;2.60;0.93;;;21.50;36.90;;;25.35;23.77;102599.81;6213738;23;20338;-15
2022/04/28 16:09:10;;;;;;;2.17;1.20;;;21.50;36.90;;;25.42;23.90;102618.13;6215383;23;20088;-15
2022/04/28 16:11:36;;;;;;;1.20;1.00;;;21.50;36.90;;;25.31;24.11;102602.66;6215467;23;20342;-15
2022/04/28 16:14:03;;;;;;;2.03;1.08;;;21.40;36.90;;;25.29;23.92;102607.22;6216010;23;20016;-15
2022/04/28 16:16:29;;;;;;;1.75;1.10;;;21.40;36.90;;;25.36;24.07;102618.47;6215496;23;20036;-15
2022/04/28 16:18:55;;;;;;;2.97;1.02;;;21.40;36.90;;;25.35;23.91;102611.38;6216110;23;20180;-15
2022/04/28 16:21:21;;;;;;;1.23;0.80;;;21.40;36.90;;;25.27;23.97;102603.75;6215355;23;20017;-15
2022/04/28 16:23:48;;;;;;;1.85;1.13;;;21.40;36.90;;;25.25;24.10;102600.25;6215427;23;20008;-15
2022/04/28 16:26:14;;;;;;;2.30;1.10;;;21.40;36.90;;;25.32;23.99;102608.84;6213459;23;20087;-15
2022/04/28 16:28:40;;;;;;;1.50;1.00;;;21.40;37.00;;;25.31;24.12;102616.03;6215259;23;20013;-15
2022/04/28 16:31:07;;;;;;;1.58;1.00;;;21.40;36.90;;;25.22;24.03;102599.56;6215546;23;20023;-15
2022/04/28 16:33:35;;;;;;;1.77;1.10;;;21.40;36.90;;;25.22;23.96;102605.75;6215730;23;20031;-15
2022/04/28 16:36:03;;;;;;;1.20;1.10;;;21.40;36.90;;;25.28;24.14;102618.88;6216052;23;20091;-15
2022/04/28 16:38:29;;;;;;;2.30;1.00;;;21.40;37.00;;;25.18;24.14;102611.38;6215184;23;20430;-15
2022/04/28 16:40:55;;;;;;;2.05;1.00;;;21.40;37.00;;;25.28;24.06;102629.56;6215107;23;20013;-15
2022/04/28 16:43:23;;;;;;;2.13;1.10;;;21.40;37.00;;;25.22;24.00;102611.13;6215314;23;20039;-15
2022/04/28 16:45:49;;;;;;;1.30;0.77;;;21.30;37.00;;;25.18;24.13;102604.22;6215288;23;20009;-15
2022/04/28 16:48:14;;;;;;;2.63;1.25;;;21.30;36.90;;;25.22;24.14;102627.19;6215931;23;20040;-15
2022/04/28 16:50:40;;;;;;;1.88;1.15;;;21.30;36.90;;;25.13;24.07;102612.47;6215233;23;20438;-15
2022/04/28 16:53:06;;;;;;;1.10;0.93;;;21.40;37.00;;;25.25;24.13;102634.19;6215413;23;20099;-15
2022/04/28 16:55:32;;;;;;;0.93;0.80;;;21.30;37.00;;;25.16;24.15;102624.84;6215609;23;20459;-15
2022/04/28 16:57:58;;;;;;;1.52;0.98;;;21.30;37.00;;;25.22;24.13;102629.00;6215647;23;20074;-15
2022/04/28 17:00:24;;;;;;;2.40;0.80;;;21.40;37.00;;;25.19;23.99;102621.13;6215221;23;20017;-15
2022/04/28 17:05:34;;;;;;;2.17;1.00;;;21.30;37.00;;;25.15;24.04;102620.44;6215593;23;20008;-15
2022/04/28 17:07:59;;;;;;;1.15;0.90;;;21.30;37.00;;;25.22;24.18;102629.84;6215371;23;20019;-15
2022/04/28 17:10:25;;;;;;;3.60;1.45;;;21.30;36.90;;;25.15;24.11;102626.63;6215395;23;20019;-15
2022/04/28 17:12:55;;;;;;;0.88;0.85;;;21.40;36.90;;;25.15;24.01;102626.63;6215589;23;20015;-15
2022/04/28 17:15:21;;;;;;;1.70;0.98;;;21.30;36.90;;;25.24;24.15;102640.47;6213495;23;20346;-15
2022/04/28 17:17:47;;;;;;;2.22;1.10;;;21.30;37.00;;;25.24;24.26;102657.44;6215672;23;20013;-16
2022/04/28 17:20:13;;;;;;;2.17;1.10;;;21.30;36.90;;;25.16;24.14;102632.88;6215123;23;20016;-14
2022/04/28 17:22:39;;;;;;;1.58;1.10;;;21.40;36.90;;;25.23;24.15;102644.13;6215612;23;20019;-14
2022/04/28 17:25:07;;;;;;;4.47;1.17;;;21.40;36.90;;;25.27;24.13;102649.25;6214990;23;20016;-14
2022/04/28 17:27:35;;;;;;;1.42;0.95;;;21.40;36.90;;;25.19;23.96;102637.19;6215196;23;20013;-13
2022/04/28 17:30:02;;;;;;;1.42;0.93;;;21.40;36.90;;;25.20;23.97;102639.78;6215089;23;20012;-13
2022/04/28 17:32:28;;;;;;;0.98;0.85;;;21.30;36.80;;;25.18;23.91;102633.66;6215197;23;20040;-15
2022/04/28 17:34:54;;;;;;;2.47;0.90;;;21.30;36.80;;;25.20;24.18;102646.97;6215039;23;20058;-15
2022/04/28 17:37:20;;;;;;;3.47;1.00;;;21.40;36.90;;;25.25;24.02;102652.94;6215168;23;20486;-15
2022/04/28 17:39:45;;;;;;;1.38;1.00;;;21.40;36.90;;;25.27;23.89;102645.72;6215056;23;20504;-15
2022/04/28 17:42:11;;;;;;;1.90;0.70;;;21.40;36.90;;;25.26;24.00;102646.63;6215471;23;20342;-15
2022/04/28 17:44:38;;;;;;;1.20;1.10;;;21.40;36.80;;;25.34;23.95;102663.19;6215049;23;20469;-15
2022/04/28 17:47:04;;;;;;;1.55;1.05;;;21.30;36.80;;;25.22;23.99;102643.25;6215050;23;20099;-15
2022/04/28 17:49:31;;;;;;;0.93;0.90;;;21.30;36.80;;;25.13;23.82;102625.84;6215596;23;20019;-15
2022/04/28 17:51:57;;;;;;;1.17;0.93;;;21.40;36.70;;;25.38;23.80;102637.13;6215568;23;20039;-15
2022/04/28 17:54:23;;;;;;;1.52;1.00;;;21.60;36.40;;;25.52;23.80;102667.56;6215148;23;20069;-15
2022/04/28 17:59:53;;;;;;;0.80;0.80;;;21.50;36.50;;;25.43;23.80;102670.75;6214651;23;20085;-15
2022/04/28 18:02:20;;;;;;;2.00;0.93;;;21.40;36.60;;;25.08;23.85;102622.56;6213557;23;20016;-15
2022/04/28 18:04:46;;;;;;;2.10;1.30;;;21.40;36.70;;;25.38;23.75;102653.22;6215195;23;20099;-15
2022/04/28 18:07:12;;;;;;;1.15;1.05;;;21.60;36.50;;;25.41;23.80;102651.22;6214849;23;20071;-15
2022/04/28 18:09:39;;;;;;;1.77;1.08;;;21.60;36.40;;;25.37;23.74;102652.31;6215445;23;20009;-15
2022/04/28 18:12:06;;;;;;;1.00;0.90;;;21.50;36.50;;;25.35;23.83;102664.94;6215118;23;20016;-14
2022/04/28 18:14:32;;;;;;;2.20;0.93;;;21.40;36.60;;;25.32;23.82;102671.28;6215409;23;20012;-15
2022/04/28 18:16:58;;;;;;;1.75;0.93;;;21.30;36.70;;;25.22;23.71;102661.13;6214898;23;20019;-15
2022/04/28 18:19:26;;;;;;;0.75;0.70;;;21.30;36.80;;;25.25;23.90;102674.34;6215349;23;20016;-15
2022/04/28 18:21:53;;;;;;;1.30;1.10;;;21.30;36.90;;;25.20;23.90;102676.41;6215383;23;20432;-15
2022/04/28 18:24:20;;;;;;;0.73;0.70;;;21.20;37.00;;;25.19;24.04;102680.03;6215079;23;20008;-15
2022/04/28 18:26:46;;;;;;;1.70;0.90;;;21.20;37.00;;;25.09;24.02;102663.56;6215357;23;20019;-15
2022/04/28 18:29:12;;;;;;;1.70;1.00;;;21.20;37.60;;;25.08;24.04;102669.88;6215275;23;20029;-15
2022/04/28 18:31:38;;;;;;;2.25;0.95;;;21.20;37.10;;;25.09;23.95;102676.94;6215004;23;20012;-15
2022/04/28 18:34:05;;;;;;;1.20;0.98;;;21.10;37.10;;;25.05;24.28;102684.25;6215695;23;20453;-15
2022/04/28 18:44:47;;;;;;;2.17;0.90;;;21.10;37.20;;;24.91;24.37;102684.13;6215547;23;20047;-15
2022/04/28 18:47:13;;;;;;;1.10;0.80;;;21.10;37.20;;;24.88;24.12;102687.78;6215068;23;20036;-15
2022/04/28 18:49:42;;;;;;;1.27;1.13;;;21.00;37.20;;;24.93;24.48;102704.47;6214811;23;20017;-15
2022/04/28 18:52:10;;;;;;;1.33;0.80;;;21.00;37.20;;;24.85;24.19;102698.66;6214825;23;20012;-15
2022/04/28 18:54:37;;;;;;;1.65;1.00;;;21.00;37.20;;;24.84;24.39;102701.41;6215197;23;20015;-15
2022/04/28 18:57:05;;;;;;;1.15;0.80;;;21.00;37.20;;;24.89;24.42;102712.72;6214490;23;20100;-15
2022/04/28 18:59:35;;;;;;;1.00;0.80;;;21.00;37.30;;;24.86;24.34;102719.13;6213089;23;20013;-14
2022/04/28 19:02:00;;;;;;;0.93;0.93;;;21.00;37.30;;;24.86;24.20;102718.22;6214782;23;20338;-15
2022/04/28 19:04:28;;;;;;;0.80;0.80;;;21.00;37.30;;;24.77;24.39;102709.75;6214706;23;20009;-15
2022/04/28 19:06:55;;;;;;;1.08;0.80;;;21.00;37.30;;;24.75;24.19;102705.41;6214550;23;20018;-15
2022/04/28 19:09:22;;;;;;;0.80;0.80;;;21.00;37.30;;;24.84;24.26;102729.03;6215403;23;20012;-15
2022/04/28 19:11:49;;;;;;;1.52;1.00;;;20.90;37.30;;;24.81;24.47;102729.19;6214152;23;20497;-15
2022/04/28 19:17:08;;;;;;;1.17;0.73;;;21.00;37.40;;;24.71;24.41;102717.19;6179398;23;20107;-15
2022/04/28 19:19:35;;;;;;;2.25;1.05;;;20.90;37.40;;;24.80;24.34;102734.59;6214439;23;20036;-15
2022/04/28 19:22:03;;;;;;;1.73;1.10;;;20.90;37.30;;;24.76;24.30;102733.91;6214662;23;20481;-15
2022/04/28 19:24:33;;;;;;;1.52;0.85;;;20.90;37.30;;;24.77;24.25;102728.47;6214575;23;20016;-15
2022/04/28 19:27:03;;;;;;;1.60;0.98;;;20.90;37.40;;;24.67;24.54;102724.47;6212951;23;20012;-15
2022/04/28 19:29:29;;;;;;;1.10;0.80;;;20.90;37.30;;;24.55;24.41;102709.91;6214476;23;20435;-15
2022/04/28 19:31:55;;;;;;;1.80;1.00;;;20.90;37.30;;;24.72;24.33;102730.47;6214535;23;20015;-14
2022/04/28 19:34:22;;;;;;;0.90;0.73;;;20.90;37.40;;;24.65;24.56;102721.03;6215210;23;20013;-15
2022/04/28 19:36:49;;;;;;;2.05;1.00;;;20.90;37.40;;;24.62;24.53;102723.84;6214449;23;20021;-15
2022/04/28 19:39:16;;;;;;;0.70;0.70;;;20.90;37.40;;;24.63;24.67;102733.63;6214864;23;20067;-15
2022/04/28 19:41:46;;;;;;;0.70;0.70;;;20.90;37.40;;;24.71;24.31;102744.81;6214509;23;20048;-15
2022/04/28 19:44:12;;;;;;;0.70;0.70;;;20.90;37.40;;;24.70;24.62;102740.38;6214954;23;20430;-15
2022/04/28 19:46:41;;;;;;;0.93;0.68;;;20.90;37.30;;;24.63;24.39;102727.41;6214027;23;20043;-15
2022/04/28 19:49:09;;;;;;;0.73;0.70;;;20.90;37.40;;;24.71;24.43;102746.63;6214442;23;20004;-15
2022/04/28 19:51:37;;;;;;;0.70;0.70;;;20.90;37.40;;;24.68;24.54;102742.28;6214361;23;20476;-15
2022/04/28 19:54:04;;;;;;;2.40;1.08;;;20.90;37.40;;;24.69;24.40;102751.16;6214132;23;20036;-15
2022/04/28 19:56:31;;;;;;;1.92;0.90;;;20.90;37.40;;;24.59;24.40;102740.03;6214088;23;20047;-15
2022/04/28 19:58:57;;;;;;;1.30;1.00;;;20.90;37.40;;;24.67;24.46;102753.91;6214258;23;20063;-15